Time;durP1;ratioP1;P1;durP2;ratioP2;P2;SDS_P1;SDS_P2;PMS_P1;PMS_P2;Temp;Humidity;BMP_temperature;BMP_pressure;BME280_temperature;BME280_humidity;BME280_pressure;Samples;Min_cycle;Max_cycle;Signal;HPM_P1;HPM_P2
2021/06/26 00:00:52;;;;;;;19.27;14.63;;;17.50;99.90;;;;;;5094464;28;20391;-71
2021/06/26 00:03:25;;;;;;;15.93;14.30;;;17.50;99.90;;;;;;5093234;28;20827;-73
2021/06/26 00:05:51;;;;;;;17.03;15.33;;;17.40;99.90;;;;;;5091384;28;20838;-72
2021/06/26 00:08:17;;;;;;;19.10;15.77;;;17.40;99.90;;;;;;5093020;28;20395;-73
2021/06/26 00:10:44;;;;;;;17.33;15.43;;;17.40;99.90;;;;;;5093220;28;20395;-73
2021/06/26 00:13:10;;;;;;;17.13;15.33;;;17.40;99.90;;;;;;5092830;28;20449;-72
2021/06/26 00:15:36;;;;;;;17.70;15.50;;;17.30;99.90;;;;;;5092664;28;20426;-73
2021/06/26 00:18:02;;;;;;;18.87;16.47;;;17.30;99.90;;;;;;5091698;28;20422;-73
2021/06/26 00:20:27;;;;;;;16.37;14.77;;;17.30;99.90;;;;;;5093129;28;20209;-73
2021/06/26 00:22:53;;;;;;;17.23;15.47;;;17.30;99.90;;;;;;5092582;28;20337;-73
2021/06/26 00:25:19;;;;;;;20.40;16.23;;;17.30;99.90;;;;;;5093013;28;20582;-73
2021/06/26 00:27:44;;;;;;;17.17;15.37;;;17.30;99.90;;;;;;5091279;28;20173;-72
2021/06/26 00:30:11;;;;;;;18.27;15.80;;;17.30;99.90;;;;;;5092810;28;20537;-72
2021/06/26 00:32:36;;;;;;;18.80;16.50;;;17.30;99.90;;;;;;5092734;28;20169;-73
2021/06/26 00:35:02;;;;;;;17.07;15.43;;;17.20;99.90;;;;;;5092827;28;20426;-72
2021/06/26 00:37:28;;;;;;;17.67;15.80;;;17.20;99.90;;;;;;5091306;28;20188;-72
2021/06/26 00:39:53;;;;;;;17.03;15.20;;;17.20;99.90;;;;;;5095221;28;20756;-73
2021/06/26 00:42:19;;;;;;;17.57;15.77;;;17.20;99.90;;;;;;5096480;28;20188;-73
2021/06/26 00:44:44;;;;;;;17.70;15.50;;;17.20;99.90;;;;;;5096463;28;20196;-72
2021/06/26 00:47:13;;;;;;;17.43;15.63;;;17.20;99.90;;;;;;5096528;28;20169;-73
2021/06/26 00:49:40;;;;;;;16.90;15.10;;;17.20;99.90;;;;;;5094795;28;20180;-72
2021/06/26 00:52:06;;;;;;;19.83;16.97;;;17.20;99.90;;;;;;5096665;28;20411;-72
2021/06/26 00:54:33;;;;;;;18.17;16.47;;;17.20;99.90;;;;;;5096421;28;20456;-73
2021/06/26 00:57:00;;;;;;;18.47;16.53;;;17.10;99.90;;;;;;5096309;28;20419;-72
2021/06/26 00:59:27;;;;;;;17.57;15.70;;;17.10;99.90;;;;;;5094707;28;20583;-72
2021/06/26 01:01:52;;;;;;;16.80;15.13;;;17.20;99.90;;;;;;5096109;28;20446;-73
2021/06/26 01:04:18;;;;;;;20.03;17.13;;;17.10;99.90;;;;;;5096103;28;20403;-73
2021/06/26 01:06:43;;;;;;;20.50;17.50;;;17.10;99.90;;;;;;5095792;28;20557;-73
2021/06/26 01:09:09;;;;;;;18.03;16.33;;;17.10;99.90;;;;;;5094334;28;20587;-72
2021/06/26 01:11:35;;;;;;;20.20;16.53;;;17.00;99.90;;;;;;5096520;28;20169;-72
2021/06/26 01:14:01;;;;;;;18.73;16.83;;;17.00;99.90;;;;;;5096571;28;20634;-72
2021/06/26 01:16:27;;;;;;;19.93;17.83;;;17.00;99.90;;;;;;5097001;28;20184;-72
2021/06/26 01:18:53;;;;;;;19.17;17.37;;;16.90;99.90;;;;;;5096303;28;20480;-72
2021/06/26 01:21:19;;;;;;;19.90;17.80;;;16.90;99.90;;;;;;5081375;28;20178;-73
2021/06/26 01:23:46;;;;;;;20.93;17.87;;;17.00;99.90;;;;;;5075316;28;20162;-73
2021/06/26 01:26:16;;;;;;;19.70;17.73;;;17.00;99.90;;;;;;5075581;28;20843;-72
2021/06/26 01:28:42;;;;;;;19.80;17.80;;;16.90;99.90;;;;;;5084358;28;20484;-72
2021/06/26 01:31:07;;;;;;;20.27;18.27;;;16.90;99.90;;;;;;5095938;28;20410;-72
2021/06/26 01:33:33;;;;;;;20.53;18.43;;;16.90;99.90;;;;;;5095400;28;20505;-72
2021/06/26 01:35:59;;;;;;;19.33;17.33;;;16.80;99.90;;;;;;5095657;28;20197;-72
2021/06/26 01:38:25;;;;;;;20.87;18.67;;;16.90;99.90;;;;;;5093866;28;20985;-72
2021/06/26 01:40:50;;;;;;;21.90;18.70;;;16.80;99.90;;;;;;5095710;28;20466;-73
2021/06/26 01:43:16;;;;;;;21.20;18.20;;;16.80;99.90;;;;;;5093378;28;20199;-73
2021/06/26 01:45:41;;;;;;;21.70;18.60;;;16.80;99.90;;;;;;5095519;28;20192;-73
2021/06/26 01:48:08;;;;;;;20.97;18.83;;;16.70;99.90;;;;;;5095453;28;20524;-73
2021/06/26 01:50:34;;;;;;;21.30;19.00;;;16.70;99.90;;;;;;5092352;28;20253;-72
2021/06/26 01:53:02;;;;;;;20.17;17.90;;;16.70;99.90;;;;;;5095802;28;20411;-73
2021/06/26 01:55:28;;;;;;;20.10;18.10;;;16.70;99.90;;;;;;5096038;28;20423;-72
2021/06/26 01:57:54;;;;;;;20.50;18.53;;;16.70;99.90;;;;;;5096646;28;20433;-73
2021/06/26 02:00:22;;;;;;;20.17;18.20;;;16.70;99.90;;;;;;5102507;28;20409;-72
2021/06/26 02:02:48;;;;;;;21.20;18.93;;;16.60;99.90;;;;;;5098387;28;20450;-73
2021/06/26 02:05:20;;;;;;;24.80;21.93;;;16.60;99.90;;;;;;5095057;28;21013;-72
2021/06/26 02:07:46;;;;;;;23.57;20.90;;;16.60;99.90;;;;;;5095260;28;20804;-72
2021/06/26 02:10:13;;;;;;;24.07;21.70;;;16.60;99.90;;;;;;5093148;28;20407;-72
2021/06/26 02:12:39;;;;;;;23.20;20.80;;;16.50;99.90;;;;;;5095117;28;21058;-73
2021/06/26 02:15:06;;;;;;;22.27;20.07;;;16.40;99.90;;;;;;5094846;28;20441;-72
2021/06/26 02:17:31;;;;;;;21.70;19.40;;;16.40;99.90;;;;;;5094774;28;20839;-72
2021/06/26 02:19:57;;;;;;;22.50;20.30;;;16.50;99.90;;;;;;5094992;28;20518;-73
2021/06/26 02:22:22;;;;;;;21.37;18.70;;;16.40;99.90;;;;;;5093249;28;20245;-73
2021/06/26 02:24:48;;;;;;;21.40;19.20;;;16.50;99.90;;;;;;5100845;28;20176;-73
2021/06/26 02:27:14;;;;;;;22.77;20.37;;;16.40;99.90;;;;;;5097703;28;20416;-73
2021/06/26 02:29:39;;;;;;;21.30;19.03;;;16.40;99.90;;;;;;5095030;28;20173;-73
2021/06/26 02:32:06;;;;;;;21.10;19.00;;;16.40;99.90;;;;;;5091576;28;20272;-72
2021/06/26 02:34:31;;;;;;;20.57;18.40;;;16.40;99.90;;;;;;5094594;28;20187;-72
2021/06/26 02:36:57;;;;;;;20.60;18.50;;;16.40;99.90;;;;;;5094561;28;20426;-72
2021/06/26 02:39:23;;;;;;;21.20;18.90;;;16.40;99.90;;;;;;5094351;28;20177;-73
2021/06/26 02:41:48;;;;;;;22.17;19.87;;;16.30;99.90;;;;;;5094276;28;20564;-73
2021/06/26 02:44:14;;;;;;;21.23;19.00;;;16.30;99.90;;;;;;5092381;28;20710;-72
2021/06/26 02:46:40;;;;;;;21.67;19.37;;;16.30;99.90;;;;;;5094205;28;20551;-72
2021/06/26 02:49:05;;;;;;;21.80;19.40;;;16.30;99.90;;;;;;5094384;28;20229;-72
2021/06/26 02:51:31;;;;;;;22.03;19.63;;;16.30;99.90;;;;;;5094506;28;20216;-72
2021/06/26 02:53:56;;;;;;;20.40;18.20;;;16.30;99.90;;;;;;5093268;28;20197;-73
2021/06/26 02:56:22;;;;;;;22.10;19.67;;;16.30;99.90;;;;;;5094003;28;20673;-73
2021/06/26 02:58:48;;;;;;;21.47;19.20;;;16.30;99.90;;;;;;5094321;28;20282;-73
2021/06/26 03:01:14;;;;;;;20.77;18.70;;;16.20;99.90;;;;;;5093893;28;20512;-73
2021/06/26 03:03:39;;;;;;;23.23;20.10;;;16.20;99.90;;;;;;5090457;28;20178;-73
2021/06/26 03:06:05;;;;;;;22.03;19.43;;;16.20;99.90;;;;;;5073407;28;20823;-72
2021/06/26 03:08:31;;;;;;;20.77;18.57;;;16.20;99.90;;;;;;5073740;28;20177;-72
2021/06/26 03:10:56;;;;;;;23.37;20.97;;;16.20;99.90;;;;;;5072752;28;20438;-72
2021/06/26 03:13:22;;;;;;;21.47;19.20;;;16.20;99.90;;;;;;5073087;28;20251;-72
2021/06/26 03:15:48;;;;;;;21.50;19.30;;;16.20;99.90;;;;;;5073948;28;20266;-72
2021/06/26 03:18:14;;;;;;;23.80;21.50;;;16.20;99.90;;;;;;5072399;28;20436;-73
2021/06/26 03:20:40;;;;;;;22.27;20.07;;;16.20;99.90;;;;;;5074086;28;20526;-73
2021/06/26 03:23:06;;;;;;;22.47;20.07;;;16.20;99.90;;;;;;5073541;28;20534;-73
2021/06/26 03:25:32;;;;;;;21.20;19.00;;;16.20;99.90;;;;;;5074464;28;20199;-72
2021/06/26 03:27:57;;;;;;;23.13;19.60;;;16.20;99.90;;;;;;5073458;28;20433;-73
2021/06/26 03:30:23;;;;;;;19.90;18.03;;;16.20;99.90;;;;;;5073527;28;20218;-72
2021/06/26 03:32:48;;;;;;;20.13;18.10;;;16.20;99.90;;;;;;5073115;28;20279;-73
2021/06/26 03:35:14;;;;;;;21.53;19.03;;;16.20;99.90;;;;;;5073689;28;20254;-72
2021/06/26 03:37:41;;;;;;;21.03;18.80;;;16.20;99.90;;;;;;5074721;28;20623;-72
2021/06/26 03:40:07;;;;;;;23.23;20.13;;;16.20;99.90;;;;;;5073358;28;20170;-73
2021/06/26 03:42:32;;;;;;;21.67;19.50;;;16.30;99.90;;;;;;5073496;28;20454;-73
2021/06/26 03:44:58;;;;;;;22.67;20.30;;;16.20;99.90;;;;;;5074008;28;20423;-72
2021/06/26 03:47:25;;;;;;;22.37;20.07;;;16.20;99.90;;;;;;5093972;28;20233;-72
2021/06/26 03:49:51;;;;;;;22.70;20.50;;;16.20;99.90;;;;;;5096853;28;20173;-73
2021/06/26 03:52:17;;;;;;;22.80;20.50;;;16.20;99.90;;;;;;5096523;28;20424;-73
2021/06/26 03:54:43;;;;;;;26.00;19.83;;;16.20;99.90;;;;;;5096562;28;20225;-73
2021/06/26 03:57:08;;;;;;;21.67;19.57;;;16.20;99.90;;;;;;5100016;28;20441;-73
2021/06/26 03:59:34;;;;;;;22.37;19.73;;;16.20;99.90;;;;;;5115901;28;20184;-73
2021/06/26 04:01:59;;;;;;;22.80;20.10;;;16.30;99.90;;;;;;5113323;28;20205;-73
2021/06/26 04:04:25;;;;;;;22.30;19.93;;;16.30;99.90;;;;;;5114974;28;20183;-72
2021/06/26 04:06:50;;;;;;;22.47;20.07;;;16.30;99.90;;;;;;5108424;28;20193;-72
2021/06/26 04:09:16;;;;;;;22.67;20.40;;;16.30;99.90;;;;;;5093344;28;20169;-72
2021/06/26 04:11:41;;;;;;;23.30;21.00;;;16.30;99.90;;;;;;5094176;28;20221;-72
2021/06/26 04:14:07;;;;;;;22.03;19.83;;;16.30;99.90;;;;;;5095841;28;20230;-73
2021/06/26 04:16:32;;;;;;;20.80;18.70;;;16.30;99.90;;;;;;5099620;28;20212;-73
2021/06/26 04:18:58;;;;;;;23.40;20.30;;;16.40;99.90;;;;;;5097789;28;20181;-72
2021/06/26 04:21:23;;;;;;;22.83;20.33;;;16.40;99.90;;;;;;5097840;28;20169;-72
2021/06/26 04:23:49;;;;;;;21.83;19.63;;;16.40;99.90;;;;;;5099394;28;20584;-72
2021/06/26 04:26:15;;;;;;;22.23;19.80;;;16.40;99.90;;;;;;5098689;28;20189;-72
2021/06/26 04:28:41;;;;;;;21.90;19.60;;;16.40;99.90;;;;;;5097504;28;20184;-73
2021/06/26 04:31:06;;;;;;;21.80;19.50;;;16.40;99.90;;;;;;5097602;28;20904;-73
2021/06/26 04:33:32;;;;;;;21.13;19.00;;;16.50;99.90;;;;;;5095065;28;20193;-72
2021/06/26 04:35:57;;;;;;;22.43;19.03;;;16.50;99.90;;;;;;5097294;28;20188;-73
2021/06/26 04:38:23;;;;;;;21.67;19.30;;;16.50;99.90;;;;;;5098931;28;20173;-73
2021/06/26 04:40:50;;;;;;;21.73;19.17;;;16.50;99.90;;;;;;5096876;28;20184;-73
2021/06/26 04:43:16;;;;;;;22.97;19.80;;;16.50;99.90;;;;;;5095922;28;20208;-71
2021/06/26 04:45:46;;;;;;;25.33;21.10;;;16.60;99.90;;;;;;5096833;28;20437;-73
2021/06/26 04:48:15;;;;;;;23.03;20.63;;;16.60;99.90;;;;;;5096624;28;20176;-73
2021/06/26 04:50:41;;;;;;;23.33;20.83;;;16.60;99.90;;;;;;5095041;28;20429;-70
2021/06/26 04:53:06;;;;;;;24.57;21.50;;;16.60;99.90;;;;;;5096765;28;20504;-71
2021/06/26 04:55:32;;;;;;;25.10;20.80;;;16.70;99.90;;;;;;5096162;28;20491;-70
2021/06/26 04:57:58;;;;;;;24.33;20.93;;;16.70;99.90;;;;;;5096539;28;20184;-70
2021/06/26 05:00:23;;;;;;;24.83;21.63;;;16.80;99.90;;;;;;5096579;28;20256;-71
2021/06/26 05:02:49;;;;;;;22.83;20.40;;;16.80;99.90;;;;;;5094749;28;20208;-71
2021/06/26 05:05:14;;;;;;;22.97;20.47;;;16.80;99.90;;;;;;5096381;28;20204;-73
2021/06/26 05:07:40;;;;;;;23.23;20.83;;;16.90;99.90;;;;;;5096655;28;20173;-71
2021/06/26 05:10:06;;;;;;;24.07;21.53;;;16.90;99.90;;;;;;5096449;28;20197;-71
2021/06/26 05:12:32;;;;;;;24.70;21.80;;;17.00;99.90;;;;;;5095223;28;20237;-72
2021/06/26 05:14:57;;;;;;;24.33;21.93;;;17.00;99.90;;;;;;5105926;28;20447;-71
2021/06/26 05:17:23;;;;;;;23.23;20.20;;;17.00;99.90;;;;;;5110069;28;20176;-71
2021/06/26 05:19:48;;;;;;;25.37;22.07;;;17.10;99.90;;;;;;5096312;28;20173;-71
2021/06/26 05:22:14;;;;;;;24.77;21.30;;;17.20;99.90;;;;;;5094268;28;20260;-71
2021/06/26 05:24:40;;;;;;;27.33;23.80;;;17.20;99.90;;;;;;5095806;28;20173;-71
2021/06/26 05:27:06;;;;;;;25.40;22.47;;;17.30;99.90;;;;;;5096070;28;20191;-71
2021/06/26 05:29:33;;;;;;;25.83;22.40;;;17.30;99.90;;;;;;5078280;28;20419;-71
2021/06/26 05:31:58;;;;;;;29.90;23.73;;;17.40;99.90;;;;;;5075869;28;20478;-71
2021/06/26 05:34:24;;;;;;;25.50;22.73;;;17.40;99.90;;;;;;5075380;28;20407;-71
2021/06/26 05:36:49;;;;;;;25.60;22.63;;;17.50;99.90;;;;;;5075855;28;20675;-72
2021/06/26 05:39:15;;;;;;;26.50;23.77;;;17.50;99.90;;;;;;5089410;28;20177;-71
2021/06/26 05:41:41;;;;;;;28.63;24.73;;;17.60;99.90;;;;;;5103853;28;20213;-71
2021/06/26 05:44:06;;;;;;;25.67;22.97;;;17.70;99.90;;;;;;5095910;28;20169;-72
2021/06/26 05:46:32;;;;;;;26.90;23.10;;;17.70;99.90;;;;;;5096281;28;20223;-72
2021/06/26 05:48:58;;;;;;;27.43;23.53;;;17.80;99.90;;;;;;5095143;28;20192;-72
2021/06/26 05:51:24;;;;;;;27.63;24.30;;;17.80;99.90;;;;;;5076848;28;20166;-72
2021/06/26 05:53:50;;;;;;;28.47;25.37;;;17.90;99.90;;;;;;5076465;28;20416;-72
2021/06/26 05:56:15;;;;;;;27.00;23.53;;;17.90;99.90;;;;;;5075908;28;20190;-72
2021/06/26 05:58:41;;;;;;;27.17;24.30;;;18.00;99.90;;;;;;5075086;28;20287;-72
2021/06/26 06:01:10;;;;;;;27.20;23.20;;;18.00;99.90;;;;;;5076246;28;20177;-72
2021/06/26 06:03:36;;;;;;;26.83;23.43;;;18.10;99.90;;;;;;5073221;28;20353;-72
2021/06/26 06:06:02;;;;;;;27.80;22.77;;;18.10;99.90;;;;;;5076060;28;20442;-72
2021/06/26 06:08:27;;;;;;;29.75;26.65;;;18.10;99.90;;;;;;5075146;28;20414;-72
2021/06/26 06:10:53;;;;;;;26.50;23.57;;;18.20;99.90;;;;;;5075917;28;20274;-72
2021/06/26 06:13:20;;;;;;;27.90;24.90;;;18.20;99.90;;;;;;5074800;28;20170;-72
2021/06/26 06:15:48;;;;;;;27.07;23.57;;;18.30;99.90;;;;;;5074966;28;20190;-72
2021/06/26 06:18:15;;;;;;;27.50;24.10;;;18.30;99.90;;;;;;5074158;28;20877;-72
2021/06/26 06:20:42;;;;;;;27.53;22.00;;;18.40;99.90;;;;;;5073409;28;20440;-72
2021/06/26 06:23:07;;;;;;;25.00;21.90;;;18.40;99.90;;;;;;5075273;28;20447;-71
2021/06/26 06:25:33;;;;;;;23.93;21.23;;;18.40;99.90;;;;;;5074297;28;20430;-72
2021/06/26 06:28:01;;;;;;;23.60;21.17;;;18.50;99.90;;;;;;5074419;28;20215;-72
2021/06/26 06:30:27;;;;;;;22.37;20.10;;;18.60;99.90;;;;;;5074487;28;20462;-72
2021/06/26 06:32:53;;;;;;;20.30;17.77;;;18.60;99.90;;;;;;5075322;28;20439;-72
2021/06/26 06:35:18;;;;;;;17.50;15.67;;;18.70;99.90;;;;;;5074168;28;20469;-72
2021/06/26 06:37:44;;;;;;;17.87;15.97;;;18.70;99.90;;;;;;5073619;28;20174;-72
2021/06/26 06:40:13;;;;;;;16.87;15.23;;;18.80;99.90;;;;;;5074151;28;20180;-72
2021/06/26 06:42:39;;;;;;;17.60;15.70;;;18.90;99.90;;;;;;5075091;28;20605;-72
2021/06/26 06:45:06;;;;;;;16.80;15.07;;;19.00;99.90;;;;;;5074093;28;20436;-72
2021/06/26 06:47:32;;;;;;;19.10;15.30;;;19.00;99.90;;;;;;5074413;28;20877;-71
2021/06/26 06:49:57;;;;;;;14.13;12.70;;;19.00;99.90;;;;;;5073928;28;20427;-72
2021/06/26 06:52:23;;;;;;;15.70;13.57;;;19.00;99.90;;;;;;5073726;28;20177;-71
2021/06/26 06:54:48;;;;;;;13.27;12.00;;;19.10;99.90;;;;;;5074921;28;20635;-72
2021/06/26 06:57:14;;;;;;;14.60;11.77;;;19.10;99.90;;;;;;5073960;28;20181;-72
2021/06/26 06:59:39;;;;;;;12.23;10.93;;;19.10;99.90;;;;;;5073782;28;20261;-71
2021/06/26 07:02:05;;;;;;;12.63;11.30;;;19.30;99.90;;;;;;5073815;28;20210;-72
2021/06/26 07:04:30;;;;;;;13.20;10.77;;;19.30;99.90;;;;;;5074674;28;20604;-73
2021/06/26 07:06:57;;;;;;;12.53;10.80;;;19.50;99.90;;;;;;5073458;28;20194;-72
2021/06/26 07:09:23;;;;;;;11.90;10.70;;;19.60;99.90;;;;;;5072767;28;20227;-73
2021/06/26 07:11:49;;;;;;;12.17;10.97;;;19.70;99.90;;;;;;5073875;28;20416;-73
2021/06/26 07:14:14;;;;;;;12.07;10.87;;;19.90;99.90;;;;;;5074449;28;20422;-72
2021/06/26 07:16:40;;;;;;;11.20;10.20;;;19.90;99.90;;;;;;5073489;28;20193;-72
2021/06/26 07:19:05;;;;;;;10.27;9.27;;;20.10;99.90;;;;;;5073595;28;20182;-73
2021/06/26 07:21:32;;;;;;;9.90;8.90;;;20.20;99.90;;;;;;5073581;28;20200;-72
2021/06/26 07:23:58;;;;;;;10.50;9.60;;;20.30;99.90;;;;;;5073542;28;20165;-72
2021/06/26 07:26:23;;;;;;;10.20;9.30;;;20.40;99.70;;;;;;5088028;28;20446;-72
2021/06/26 07:28:49;;;;;;;10.47;9.47;;;20.50;99.30;;;;;;5092546;28;20222;-72
2021/06/26 07:31:14;;;;;;;10.70;9.70;;;20.60;99.00;;;;;;5093429;28;20610;-72
2021/06/26 07:33:40;;;;;;;11.20;10.20;;;20.70;98.80;;;;;;5093019;28;20188;-72
2021/06/26 07:36:06;;;;;;;10.60;9.60;;;20.80;98.60;;;;;;5091936;28;20650;-73
2021/06/26 07:38:32;;;;;;;11.13;9.90;;;20.80;98.50;;;;;;5093637;28;20192;-72
2021/06/26 07:40:57;;;;;;;9.90;9.00;;;20.90;98.40;;;;;;5093416;28;20426;-72
2021/06/26 07:43:23;;;;;;;11.23;10.10;;;20.90;98.20;;;;;;5091991;28;20193;-73
2021/06/26 07:45:48;;;;;;;10.90;9.90;;;21.00;98.50;;;;;;5091411;28;20196;-73
2021/06/26 07:48:14;;;;;;;9.07;8.17;;;21.10;98.10;;;;;;5093037;28;20181;-72
2021/06/26 07:50:39;;;;;;;10.50;9.47;;;21.20;97.70;;;;;;5089824;28;20177;-72
2021/06/26 07:53:05;;;;;;;17.70;9.30;;;21.30;97.50;;;;;;5071377;28;20178;-72
2021/06/26 07:55:31;;;;;;;10.60;9.53;;;21.40;97.30;;;;;;5090177;28;20228;-73
2021/06/26 07:57:57;;;;;;;11.53;10.53;;;21.50;97.10;;;;;;5089802;28;20287;-73
2021/06/26 08:00:23;;;;;;;9.80;9.00;;;21.60;97.10;;;;;;5092763;28;20450;-73
2021/06/26 08:02:48;;;;;;;9.73;8.83;;;21.70;96.90;;;;;;5091383;28;20559;-72
2021/06/26 08:05:14;;;;;;;9.77;8.83;;;21.80;96.70;;;;;;5092915;28;20475;-73
2021/06/26 08:07:39;;;;;;;9.13;8.43;;;21.80;96.50;;;;;;5089688;28;20365;-72
2021/06/26 08:10:06;;;;;;;10.40;9.50;;;22.00;96.10;;;;;;5093163;28;20172;-73
2021/06/26 08:12:33;;;;;;;9.37;8.57;;;22.00;95.90;;;;;;5091073;28;20231;-72
2021/06/26 08:14:58;;;;;;;9.97;9.07;;;22.10;95.90;;;;;;5092976;28;20434;-72
2021/06/26 08:17:24;;;;;;;9.20;8.40;;;22.20;95.40;;;;;;5092148;28;20572;-74
2021/06/26 08:19:50;;;;;;;9.23;8.50;;;22.30;95.10;;;;;;5091655;28;20185;-73
2021/06/26 08:22:15;;;;;;;9.20;8.30;;;22.40;94.60;;;;;;5093027;28;20197;-72
2021/06/26 08:24:42;;;;;;;9.70;8.97;;;22.50;94.90;;;;;;5082122;28;20588;-73
2021/06/26 08:27:08;;;;;;;9.63;8.93;;;22.50;95.10;;;;;;5072815;28;20193;-73
2021/06/26 08:29:33;;;;;;;9.73;8.83;;;22.60;95.30;;;;;;5075604;28;20489;-72
2021/06/26 08:31:59;;;;;;;9.80;8.90;;;22.70;95.30;;;;;;5083642;28;20419;-73
2021/06/26 08:34:25;;;;;;;9.60;8.80;;;22.70;95.10;;;;;;5085535;28;20187;-73
2021/06/26 08:36:51;;;;;;;9.67;8.73;;;22.70;95.40;;;;;;5092887;28;20192;-72
2021/06/26 08:39:19;;;;;;;8.60;7.90;;;22.90;95.10;;;;;;5092014;28;20169;-72
2021/06/26 08:41:50;;;;;;;8.70;7.90;;;23.00;94.00;;;;;;5089234;28;20951;-72
2021/06/26 08:44:19;;;;;;;8.70;7.67;;;23.00;93.30;;;;;;5094687;28;20387;-72
2021/06/26 08:46:51;;;;;;;8.87;8.17;;;23.10;93.10;;;;;;5100329;28;20427;-72
2021/06/26 08:49:18;;;;;;;9.50;8.60;;;23.20;92.90;;;;;;5093650;28;20391;-73
2021/06/26 08:51:44;;;;;;;9.13;8.00;;;23.20;92.70;;;;;;5075789;28;20932;-72
2021/06/26 08:54:14;;;;;;;9.43;8.53;;;23.30;92.70;;;;;;5081679;28;20423;-73
2021/06/26 08:56:41;;;;;;;8.37;7.67;;;23.40;92.20;;;;;;5101902;28;20553;-73
2021/06/26 08:59:07;;;;;;;9.23;7.70;;;23.50;91.80;;;;;;5093343;28;20422;-73
2021/06/26 09:01:37;;;;;;;9.30;8.40;;;23.60;91.80;;;;;;5085861;28;20435;-73
2021/06/26 09:04:08;;;;;;;9.93;9.13;;;23.40;91.90;;;;;;5086057;28;20198;-72
2021/06/26 09:06:50;;;;;;;8.60;7.90;;;23.50;91.70;;;;;;5086862;28;20431;-72
2021/06/26 09:09:27;;;;;;;9.00;8.17;;;23.60;91.10;;;;;;5076345;28;20445;-72
2021/06/26 09:12:20;;;;;;;8.97;8.27;;;23.70;90.90;;;;;;5091725;28;20822;-72
2021/06/26 09:14:45;;;;;;;9.67;8.67;;;23.80;90.60;;;;;;5093330;28;20429;-72
2021/06/26 09:17:12;;;;;;;8.13;7.33;;;23.80;90.60;;;;;;5096226;28;20407;-71
2021/06/26 09:19:39;;;;;;;9.47;8.07;;;23.80;90.10;;;;;;5084207;28;20182;-72
2021/06/26 09:22:09;;;;;;;12.77;8.27;;;23.70;89.50;;;;;;5076974;28;21044;-72
2021/06/26 09:24:38;;;;;;;9.93;7.17;;;23.60;89.10;;;;;;5075917;28;20952;-73
2021/06/26 09:27:04;;;;;;;8.40;7.67;;;23.60;90.00;;;;;;5075261;28;20428;-72
2021/06/26 09:29:29;;;;;;;8.50;7.80;;;23.70;90.20;;;;;;5091721;28;20426;-72
2021/06/26 09:31:57;;;;;;;8.37;7.13;;;23.80;89.40;;;;;;5094729;28;20787;-72
2021/06/26 09:34:38;;;;;;;7.65;7.05;;;23.80;89.20;;;;;;5091413;28;20413;-72
2021/06/26 09:37:07;;;;;;;8.30;7.60;;;23.90;89.10;;;;;;5095600;28;20679;-73
2021/06/26 09:39:43;;;;;;;8.70;8.00;;;24.00;89.00;;;;;;5091182;28;20511;-72
2021/06/26 09:42:28;;;;;;;7.73;7.10;;;24.20;87.20;;;;;;5093845;28;20451;-72
2021/06/26 09:45:19;;;;;;;8.70;8.00;;;24.30;88.00;;;;;;5094953;28;20464;-73
2021/06/26 09:47:46;;;;;;;8.47;7.77;;;24.60;87.20;;;;;;5094440;28;20418;-72
2021/06/26 09:50:25;;;;;;;7.97;7.37;;;24.80;86.30;;;;;;5094182;28;20434;-71
2021/06/26 09:53:03;;;;;;;8.50;7.70;;;24.70;83.60;;;;;;5094572;28;20534;-72
2021/06/26 09:55:40;;;;;;;7.80;7.10;;;24.90;83.40;;;;;;5093718;28;20458;-71
2021/06/26 09:58:11;;;;;;;7.87;7.20;;;25.00;82.90;;;;;;5094032;28;20514;-72
2021/06/26 10:01:01;;;;;;;7.77;7.17;;;25.10;82.20;;;;;;5087137;28;20426;-73
2021/06/26 10:03:27;;;;;;;8.40;7.60;;;25.10;82.00;;;;;;5090650;28;20508;-73
2021/06/26 10:05:53;;;;;;;8.50;7.80;;;25.10;82.00;;;;;;5092203;28;20526;-73
2021/06/26 10:08:20;;;;;;;8.03;7.43;;;24.90;80.00;;;;;;5092901;28;20509;-72
2021/06/26 10:10:45;;;;;;;8.30;7.70;;;25.00;80.70;;;;;;5093953;28;20422;-72
2021/06/26 10:13:13;;;;;;;7.90;7.30;;;25.20;80.60;;;;;;5093787;28;20423;-71
2021/06/26 10:15:39;;;;;;;8.53;7.63;;;25.20;80.10;;;;;;5094813;28;20196;-71
2021/06/26 10:18:05;;;;;;;9.17;8.37;;;25.30;80.20;;;;;;5094389;28;21068;-72
2021/06/26 10:20:31;;;;;;;8.33;7.60;;;25.40;78.50;;;;;;5083820;28;20424;-72
2021/06/26 10:22:59;;;;;;;9.50;6.90;;;25.40;78.60;;;;;;5086162;28;20456;-72
2021/06/26 10:25:36;;;;;;;8.10;7.47;;;25.50;79.10;;;;;;5094340;28;20201;-72
2021/06/26 10:28:19;;;;;;;8.77;8.07;;;25.40;78.90;;;;;;5089277;28;20492;-72
2021/06/26 10:30:58;;;;;;;8.30;7.57;;;25.30;78.10;;;;;;5085142;28;20442;-72
2021/06/26 10:33:29;;;;;;;8.07;7.47;;;25.30;78.90;;;;;;5093301;28;20417;-72
2021/06/26 10:35:56;;;;;;;8.17;7.47;;;25.20;78.50;;;;;;5090219;28;20474;-72
2021/06/26 10:38:22;;;;;;;8.90;8.10;;;25.10;78.30;;;;;;5081622;28;21267;-72
2021/06/26 10:40:51;;;;;;;9.33;8.50;;;25.00;77.90;;;;;;5091099;28;20474;-71
2021/06/26 10:43:22;;;;;;;9.57;8.77;;;24.90;79.00;;;;;;5093673;28;20228;-71
2021/06/26 10:45:50;;;;;;;8.47;7.77;;;25.00;80.10;;;;;;5077449;28;20810;-71
2021/06/26 10:48:22;;;;;;;8.00;7.40;;;25.20;78.90;;;;;;5095005;28;20518;-71
2021/06/26 10:50:53;;;;;;;8.37;7.67;;;25.30;78.20;;;;;;5091175;28;20451;-71
2021/06/26 10:53:28;;;;;;;8.88;8.07;;;25.30;77.70;;;;;;5087640;28;20425;-72
2021/06/26 10:56:06;;;;;;;7.40;6.90;;;25.50;77.60;;;;;;5078548;28;20196;-72
2021/06/26 10:58:43;;;;;;;8.23;7.53;;;25.60;77.40;;;;;;5095384;28;20435;-72
2021/06/26 11:01:18;;;;;;;8.50;7.70;;;25.80;77.30;;;;;;5093634;28;20411;-71
2021/06/26 11:03:45;;;;;;;7.77;7.17;;;26.00;77.20;;;;;;5092281;28;20454;-72
2021/06/26 11:06:30;;;;;;;8.57;7.80;;;26.10;76.40;;;;;;5093849;28;20419;-72
2021/06/26 11:09:01;;;;;;;7.77;7.17;;;25.90;75.30;;;;;;5094656;28;20915;-71
2021/06/26 11:11:44;;;;;;;7.53;6.93;;;25.90;75.60;;;;;;5094402;28;20998;-71
2021/06/26 11:14:15;;;;;;;8.50;7.80;;;26.00;75.70;;;;;;5093362;28;20499;-71
2021/06/26 11:16:53;;;;;;;8.83;8.07;;;25.90;75.40;;;;;;5095986;28;20867;-71
2021/06/26 11:19:20;;;;;;;10.83;7.93;;;25.90;74.70;;;;;;5095256;28;20411;-71
2021/06/26 11:21:50;;;;;;;8.20;7.50;;;25.70;74.70;;;;;;5094181;28;20418;-72
2021/06/26 11:24:16;;;;;;;7.87;7.27;;;25.60;74.80;;;;;;5091638;28;20784;-72
2021/06/26 11:26:52;;;;;;;8.77;7.97;;;25.60;75.60;;;;;;5093840;28;20438;-71
2021/06/26 11:29:25;;;;;;;8.30;7.60;;;25.50;74.70;;;;;;5093370;28;20404;-72
2021/06/26 11:31:50;;;;;;;8.10;7.40;;;25.40;74.10;;;;;;5092449;28;20523;-71
2021/06/26 11:34:16;;;;;;;8.50;7.90;;;25.40;74.70;;;;;;5092172;28;20438;-71
2021/06/26 11:36:42;;;;;;;8.40;7.63;;;25.30;75.80;;;;;;5091145;28;20209;-71
2021/06/26 11:39:08;;;;;;;8.27;7.40;;;25.30;75.70;;;;;;5089865;28;20275;-71
2021/06/26 11:41:33;;;;;;;7.80;7.20;;;25.40;76.10;;;;;;5092327;28;20218;-71
2021/06/26 11:44:00;;;;;;;8.03;7.43;;;25.50;76.10;;;;;;5090401;28;20694;-71
2021/06/26 11:46:26;;;;;;;7.97;7.20;;;25.70;75.70;;;;;;5096737;28;20193;-71
2021/06/26 11:48:52;;;;;;;7.70;7.00;;;25.80;74.60;;;;;;5103433;28;20429;-72
2021/06/26 11:51:18;;;;;;;7.53;7.00;;;25.90;73.90;;;;;;5091115;28;20169;-72
2021/06/26 11:53:43;;;;;;;7.90;7.30;;;26.00;73.70;;;;;;5092263;28;20277;-72
2021/06/26 11:56:15;;;;;;;7.53;6.93;;;26.00;73.20;;;;;;5092345;28;20534;-71
2021/06/26 11:58:46;;;;;;;8.03;7.43;;;26.10;73.20;;;;;;5093822;28;20216;-72
2021/06/26 12:01:25;;;;;;;7.93;7.33;;;26.00;73.00;;;;;;5097252;28;20406;-72
2021/06/26 12:03:51;;;;;;;7.80;7.20;;;26.00;74.00;;;;;;5096788;28;20548;-72
2021/06/26 12:06:18;;;;;;;8.37;7.67;;;26.00;73.70;;;;;;5084986;28;20443;-73
2021/06/26 12:08:53;;;;;;;8.27;7.67;;;26.10;74.10;;;;;;5077571;28;20400;-72
2021/06/26 12:11:36;;;;;;;8.00;7.30;;;26.10;73.30;;;;;;5082738;28;20411;-73
2021/06/26 12:14:03;;;;;;;7.60;7.10;;;26.20;73.40;;;;;;5085645;28;20866;-71
2021/06/26 12:16:32;;;;;;;8.17;7.57;;;26.10;73.10;;;;;;5074782;28;20928;-72
2021/06/26 12:19:06;;;;;;;8.60;7.87;;;26.10;73.10;;;;;;5073432;28;20424;-72
2021/06/26 12:21:39;;;;;;;7.90;7.30;;;26.20;72.90;;;;;;5073557;28;20922;-72
2021/06/26 12:24:06;;;;;;;7.70;7.10;;;26.10;72.40;;;;;;5073388;28;20442;-72
2021/06/26 12:26:32;;;;;;;7.73;7.13;;;26.20;73.10;;;;;;5073857;28;20505;-71
2021/06/26 12:28:57;;;;;;;8.20;7.60;;;26.30;72.90;;;;;;5073093;28;20403;-71
2021/06/26 12:31:25;;;;;;;9.10;8.23;;;26.30;74.40;;;;;;5073113;28;20407;-72
2021/06/26 12:34:01;;;;;;;8.40;7.70;;;26.10;74.60;;;;;;5072652;28;20212;-72
2021/06/26 12:36:26;;;;;;;8.90;8.10;;;26.10;74.80;;;;;;5077247;28;20446;-72